sensor_id;sensor_type;location;lat;lon;timestamp;P1;durP1;ratioP1;P2;durP2;ratioP2
11917;SDS011;6019;51.768;5.870;2023-03-08T00:01:23;587.8;;;29.2;;
11917;SDS011;6019;51.768;5.870;2023-03-08T00:03:53;585.0;;;32.8;;
11917;SDS011;6019;51.768;5.870;2023-03-08T00:06:23;589.1333333333333;;;33.8;;
11917;SDS011;6019;51.768;5.870;2023-03-08T00:08:53;578.0666666666667;;;30.8;;
11917;SDS011;6019;51.768;5.870;2023-03-08T00:11:23;582.7333333333333;;;33.6;;
11917;SDS011;6019;51.768;5.870;2023-03-08T00:13:53;578.4666666666667;;;29.8;;
11917;SDS011;6019;51.768;5.870;2023-03-08T00:16:23;585.6;;;28.2;;
11917;SDS011;6019;51.768;5.870;2023-03-08T00:18:53;587.6666666666666;;;29.2;;
11917;SDS011;6019;51.768;5.870;2023-03-08T00:21:23;590.0;;;32.8;;
11917;SDS011;6019;51.768;5.870;2023-03-08T00:23:53;581.3333333333334;;;29.8;;
11917;SDS011;6019;51.768;5.870;2023-03-08T00:26:23;580.5333333333333;;;32.2;;
11917;SDS011;6019;51.768;5.870;2023-03-08T00:28:53;584.6666666666666;;;32.2;;
11917;SDS011;6019;51.768;5.870;2023-03-08T00:31:23;588.6;;;28.6;;
11917;SDS011;6019;51.768;5.870;2023-03-08T00:33:53;584.0666666666667;;;29.0;;
11917;SDS011;6019;51.768;5.870;2023-03-08T00:36:23;586.9333333333333;;;28.8;;
11917;SDS011;6019;51.768;5.870;2023-03-08T00:38:53;581.0666666666667;;;28.8;;
11917;SDS011;6019;51.768;5.870;2023-03-08T00:41:23;579.6;;;26.2;;
11917;SDS011;6019;51.768;5.870;2023-03-08T00:43:53;582.4;;;26.0;;
11917;SDS011;6019;51.768;5.870;2023-03-08T00:46:23;578.0;;;25.4;;
11917;SDS011;6019;51.768;5.870;2023-03-08T00:48:53;579.6;;;26.0;;
11917;SDS011;6019;51.768;5.870;2023-03-08T00:51:23;585.2666666666667;;;27.2;;
11917;SDS011;6019;51.768;5.870;2023-03-08T00:53:53;589.0;;;29.0;;
11917;SDS011;6019;51.768;5.870;2023-03-08T00:56:23;586.3333333333334;;;26.4;;
11917;SDS011;6019;51.768;5.870;2023-03-08T00:58:53;583.0;;;27.2;;
11917;SDS011;6019;51.768;5.870;2023-03-08T01:01:23;584.8;;;28.2;;
11917;SDS011;6019;51.768;5.870;2023-03-08T01:03:53;584.7333333333333;;;27.4;;
11917;SDS011;6019;51.768;5.870;2023-03-08T01:06:23;585.2666666666667;;;27.8;;
11917;SDS011;6019;51.768;5.870;2023-03-08T01:08:53;583.8;;;28.0;;
11917;SDS011;6019;51.768;5.870;2023-03-08T01:11:24;580.3333333333334;;;26.8;;
11917;SDS011;6019;51.768;5.870;2023-03-08T01:13:53;579.4;;;27.0;;
11917;SDS011;6019;51.768;5.870;2023-03-08T01:16:24;577.8666666666667;;;26.0;;
11917;SDS011;6019;51.768;5.870;2023-03-08T01:18:53;580.7333333333333;;;25.0;;
11917;SDS011;6019;51.768;5.870;2023-03-08T01:21:23;585.1333333333333;;;24.2;;
11917;SDS011;6019;51.768;5.870;2023-03-08T01:23:53;589.3333333333334;;;24.6;;
11917;SDS011;6019;51.768;5.870;2023-03-08T01:26:23;590.6666666666666;;;25.0;;
11917;SDS011;6019;51.768;5.870;2023-03-08T01:28:53;593.1333333333333;;;25.0;;
11917;SDS011;6019;51.768;5.870;2023-03-08T01:31:23;589.3333333333334;;;26.2;;
11917;SDS011;6019;51.768;5.870;2023-03-08T01:33:53;592.2;;;28.6;;
11917;SDS011;6019;51.768;5.870;2023-03-08T01:36:24;593.8666666666667;;;30.8;;
11917;SDS011;6019;51.768;5.870;2023-03-08T01:38:53;595.9333333333333;;;32.6;;
11917;SDS011;6019;51.768;5.870;2023-03-08T01:41:24;596.2;;;33.8;;
11917;SDS011;6019;51.768;5.870;2023-03-08T01:43:53;591.4;;;34.2;;
11917;SDS011;6019;51.768;5.870;2023-03-08T01:46:24;592.2;;;34.6;;
11917;SDS011;6019;51.768;5.870;2023-03-08T01:48:56;591.0;;;34.2;;
11917;SDS011;6019;51.768;5.870;2023-03-08T01:51:25;593.2;;;34.4;;
11917;SDS011;6019;51.768;5.870;2023-03-08T01:53:53;589.6666666666666;;;35.0;;
11917;SDS011;6019;51.768;5.870;2023-03-08T01:56:23;589.0666666666667;;;35.0;;
11917;SDS011;6019;51.768;5.870;2023-03-08T01:58:53;592.6;;;34.0;;
11917;SDS011;6019;51.768;5.870;2023-03-08T02:01:23;598.3333333333334;;;34.8;;
11917;SDS011;6019;51.768;5.870;2023-03-08T02:03:53;595.6666666666666;;;35.6;;
11917;SDS011;6019;51.768;5.870;2023-03-08T02:06:23;597.4666666666667;;;36.0;;
11917;SDS011;6019;51.768;5.870;2023-03-08T02:08:53;601.6666666666666;;;35.6;;
11917;SDS011;6019;51.768;5.870;2023-03-08T02:11:23;602.6666666666666;;;36.2;;
11917;SDS011;6019;51.768;5.870;2023-03-08T02:13:53;604.6666666666666;;;37.4;;
11917;SDS011;6019;51.768;5.870;2023-03-08T02:16:23;595.5333333333333;;;40.8;;
11917;SDS011;6019;51.768;5.870;2023-03-08T02:18:54;599.9333333333333;;;43.8;;
11917;SDS011;6019;51.768;5.870;2023-03-08T02:21:23;600.8666666666667;;;42.8;;
11917;SDS011;6019;51.768;5.870;2023-03-08T02:23:53;600.2666666666667;;;43.4;;
11917;SDS011;6019;51.768;5.870;2023-03-08T02:26:23;604.2666666666667;;;42.0;;
11917;SDS011;6019;51.768;5.870;2023-03-08T02:28:53;607.0666666666667;;;41.4;;
11917;SDS011;6019;51.768;5.870;2023-03-08T02:31:23;602.8666666666667;;;41.8;;
11917;SDS011;6019;51.768;5.870;2023-03-08T02:33:53;604.2666666666667;;;43.6;;
11917;SDS011;6019;51.768;5.870;2023-03-08T02:36:23;607.1333333333333;;;42.4;;
11917;SDS011;6019;51.768;5.870;2023-03-08T02:38:53;606.8;;;42.6;;
11917;SDS011;6019;51.768;5.870;2023-03-08T02:41:23;600.6;;;44.8;;
11917;SDS011;6019;51.768;5.870;2023-03-08T02:43:53;606.4666666666667;;;45.4;;
11917;SDS011;6019;51.768;5.870;2023-03-08T02:46:23;608.9333333333333;;;47.0;;
11917;SDS011;6019;51.768;5.870;2023-03-08T02:48:53;606.8666666666667;;;47.4;;
11917;SDS011;6019;51.768;5.870;2023-03-08T02:51:23;604.0666666666667;;;48.2;;
11917;SDS011;6019;51.768;5.870;2023-03-08T02:53:53;602.6;;;49.0;;
11917;SDS011;6019;51.768;5.870;2023-03-08T02:56:23;605.0;;;49.2;;
11917;SDS011;6019;51.768;5.870;2023-03-08T02:58:53;606.9333333333333;;;49.8;;
11917;SDS011;6019;51.768;5.870;2023-03-08T03:01:23;607.5333333333333;;;52.4;;
11917;SDS011;6019;51.768;5.870;2023-03-08T03:03:53;609.8666666666667;;;52.2;;
11917;SDS011;6019;51.768;5.870;2023-03-08T03:06:23;608.6;;;51.2;;
11917;SDS011;6019;51.768;5.870;2023-03-08T03:08:53;609.8;;;51.4;;
11917;SDS011;6019;51.768;5.870;2023-03-08T03:11:23;610.6666666666666;;;52.6;;
11917;SDS011;6019;51.768;5.870;2023-03-08T03:13:53;609.4666666666667;;;51.4;;
11917;SDS011;6019;51.768;5.870;2023-03-08T03:16:24;610.6666666666666;;;53.2;;
11917;SDS011;6019;51.768;5.870;2023-03-08T03:18:53;609.6666666666666;;;53.0;;
11917;SDS011;6019;51.768;5.870;2023-03-08T03:21:23;612.3333333333334;;;52.8;;
11917;SDS011;6019;51.768;5.870;2023-03-08T03:23:53;611.2;;;52.6;;
11917;SDS011;6019;51.768;5.870;2023-03-08T03:26:23;608.6666666666666;;;53.0;;
11917;SDS011;6019;51.768;5.870;2023-03-08T03:28:54;612.4666666666667;;;52.0;;
11917;SDS011;6019;51.768;5.870;2023-03-08T03:31:24;608.4666666666667;;;52.0;;
11917;SDS011;6019;51.768;5.870;2023-03-08T03:33:53;609.6;;;52.2;;
11917;SDS011;6019;51.768;5.870;2023-03-08T03:36:23;612.2;;;51.0;;
11917;SDS011;6019;51.768;5.870;2023-03-08T03:38:53;608.6;;;51.6;;
11917;SDS011;6019;51.768;5.870;2023-03-08T03:41:23;612.5333333333333;;;50.0;;
11917;SDS011;6019;51.768;5.870;2023-03-08T03:43:53;610.4;;;49.2;;
11917;SDS011;6019;51.768;5.870;2023-03-08T03:46:23;604.2;;;49.0;;
11917;SDS011;6019;51.768;5.870;2023-03-08T03:48:53;605.0;;;49.4;;
11917;SDS011;6019;51.768;5.870;2023-03-08T03:51:23;609.4666666666667;;;49.4;;
11917;SDS011;6019;51.768;5.870;2023-03-08T03:53:53;607.5333333333333;;;48.4;;
11917;SDS011;6019;51.768;5.870;2023-03-08T03:56:24;608.0;;;48.0;;
11917;SDS011;6019;51.768;5.870;2023-03-08T03:58:53;609.7333333333333;;;48.0;;
11917;SDS011;6019;51.768;5.870;2023-03-08T04:01:25;610.9333333333333;;;48.4;;
11917;SDS011;6019;51.768;5.870;2023-03-08T04:03:54;609.0666666666667;;;48.8;;
11917;SDS011;6019;51.768;5.870;2023-03-08T04:06:24;606.5333333333333;;;48.8;;
11917;SDS011;6019;51.768;5.870;2023-03-08T04:08:54;607.4666666666667;;;50.8;;
11917;SDS011;6019;51.768;5.870;2023-03-08T04:11:24;610.1333333333333;;;55.0;;
11917;SDS011;6019;51.768;5.870;2023-03-08T04:13:54;619.5333333333333;;;62.0;;
11917;SDS011;6019;51.768;5.870;2023-03-08T04:16:24;618.9333333333333;;;68.0;;
11917;SDS011;6019;51.768;5.870;2023-03-08T04:18:54;620.2;;;67.0;;
11917;SDS011;6019;51.768;5.870;2023-03-08T04:21:23;619.2;;;66.6;;
11917;SDS011;6019;51.768;5.870;2023-03-08T04:23:54;617.8;;;67.8;;
11917;SDS011;6019;51.768;5.870;2023-03-08T04:26:24;619.3333333333334;;;66.4;;
11917;SDS011;6019;51.768;5.870;2023-03-08T04:28:53;620.5333333333333;;;68.4;;
11917;SDS011;6019;51.768;5.870;2023-03-08T04:31:24;625.6;;;72.8;;
11917;SDS011;6019;51.768;5.870;2023-03-08T04:33:54;622.2666666666667;;;71.8;;
11917;SDS011;6019;51.768;5.870;2023-03-08T04:36:23;623.1333333333333;;;70.2;;
11917;SDS011;6019;51.768;5.870;2023-03-08T04:38:53;613.2;;;63.6;;
11917;SDS011;6019;51.768;5.870;2023-03-08T04:41:24;617.6666666666666;;;58.6;;
11917;SDS011;6019;51.768;5.870;2023-03-08T04:43:54;613.1333333333333;;;58.0;;
11917;SDS011;6019;51.768;5.870;2023-03-08T04:46:24;612.4;;;57.2;;
11917;SDS011;6019;51.768;5.870;2023-03-08T04:48:54;613.8666666666667;;;56.0;;
11917;SDS011;6019;51.768;5.870;2023-03-08T04:51:24;610.5333333333333;;;53.2;;
11917;SDS011;6019;51.768;5.870;2023-03-08T04:53:53;610.6666666666666;;;54.0;;
11917;SDS011;6019;51.768;5.870;2023-03-08T04:56:24;616.0666666666667;;;55.8;;
11917;SDS011;6019;51.768;5.870;2023-03-08T04:58:53;611.0;;;56.6;;
11917;SDS011;6019;51.768;5.870;2023-03-08T05:01:23;613.2666666666667;;;56.8;;
11917;SDS011;6019;51.768;5.870;2023-03-08T05:03:54;607.6666666666666;;;56.8;;
11917;SDS011;6019;51.768;5.870;2023-03-08T05:06:24;612.8;;;56.4;;
11917;SDS011;6019;51.768;5.870;2023-03-08T05:08:54;611.6666666666666;;;56.6;;
11917;SDS011;6019;51.768;5.870;2023-03-08T05:11:24;611.3333333333334;;;56.2;;
11917;SDS011;6019;51.768;5.870;2023-03-08T05:13:54;612.7333333333333;;;55.2;;
11917;SDS011;6019;51.768;5.870;2023-03-08T05:16:24;614.8;;;56.0;;
11917;SDS011;6019;51.768;5.870;2023-03-08T05:18:54;612.6;;;56.2;;
11917;SDS011;6019;51.768;5.870;2023-03-08T05:21:23;611.7333333333333;;;55.6;;
11917;SDS011;6019;51.768;5.870;2023-03-08T05:23:54;611.1333333333333;;;55.4;;
11917;SDS011;6019;51.768;5.870;2023-03-08T05:26:24;609.2666666666667;;;54.0;;
11917;SDS011;6019;51.768;5.870;2023-03-08T05:28:53;603.3333333333334;;;53.0;;
11917;SDS011;6019;51.768;5.870;2023-03-08T05:31:24;606.2666666666667;;;51.8;;
11917;SDS011;6019;51.768;5.870;2023-03-08T05:33:53;600.0666666666667;;;50.0;;
11917;SDS011;6019;51.768;5.870;2023-03-08T05:36:24;604.6;;;49.4;;
11917;SDS011;6019;51.768;5.870;2023-03-08T05:38:54;605.6666666666666;;;49.0;;
11917;SDS011;6019;51.768;5.870;2023-03-08T05:41:24;610.4666666666667;;;49.0;;
11917;SDS011;6019;51.768;5.870;2023-03-08T05:43:53;608.6666666666666;;;49.0;;
11917;SDS011;6019;51.768;5.870;2023-03-08T05:46:24;611.5333333333333;;;48.6;;
11917;SDS011;6019;51.768;5.870;2023-03-08T05:48:53;607.8666666666667;;;50.0;;
11917;SDS011;6019;51.768;5.870;2023-03-08T05:51:23;612.1333333333333;;;51.4;;
11917;SDS011;6019;51.768;5.870;2023-03-08T05:53:53;612.9333333333333;;;51.8;;
11917;SDS011;6019;51.768;5.870;2023-03-08T05:56:24;610.9333333333333;;;52.0;;
11917;SDS011;6019;51.768;5.870;2023-03-08T05:58:54;608.6666666666666;;;51.2;;
11917;SDS011;6019;51.768;5.870;2023-03-08T06:01:24;608.8666666666667;;;51.0;;
11917;SDS011;6019;51.768;5.870;2023-03-08T06:03:54;606.4666666666667;;;50.2;;
11917;SDS011;6019;51.768;5.870;2023-03-08T06:06:24;603.0666666666667;;;50.0;;
11917;SDS011;6019;51.768;5.870;2023-03-08T06:08:54;598.4;;;49.4;;
11917;SDS011;6019;51.768;5.870;2023-03-08T06:11:24;604.7333333333333;;;49.8;;
11917;SDS011;6019;51.768;5.870;2023-03-08T06:13:54;604.0666666666667;;;50.0;;
11917;SDS011;6019;51.768;5.870;2023-03-08T06:16:24;605.8666666666667;;;50.2;;
11917;SDS011;6019;51.768;5.870;2023-03-08T06:18:54;604.7333333333333;;;50.0;;
11917;SDS011;6019;51.768;5.870;2023-03-08T06:21:24;605.4;;;49.2;;
11917;SDS011;6019;51.768;5.870;2023-03-08T06:23:54;606.1333333333333;;;49.2;;
11917;SDS011;6019;51.768;5.870;2023-03-08T06:26:23;608.6666666666666;;;48.0;;
11917;SDS011;6019;51.768;5.870;2023-03-08T06:28:54;610.5333333333333;;;47.0;;
11917;SDS011;6019;51.768;5.870;2023-03-08T06:31:24;606.9333333333333;;;47.0;;
11917;SDS011;6019;51.768;5.870;2023-03-08T06:33:54;601.9333333333333;;;46.0;;
11917;SDS011;6019;51.768;5.870;2023-03-08T06:36:24;608.8;;;46.8;;
11917;SDS011;6019;51.768;5.870;2023-03-08T06:38:54;610.3333333333334;;;47.0;;
11917;SDS011;6019;51.768;5.870;2023-03-08T06:41:24;611.3333333333334;;;46.6;;
11917;SDS011;6019;51.768;5.870;2023-03-08T06:43:54;608.9333333333333;;;46.8;;
11917;SDS011;6019;51.768;5.870;2023-03-08T06:46:23;610.4;;;47.2;;
11917;SDS011;6019;51.768;5.870;2023-03-08T06:48:54;611.1333333333333;;;47.8;;
11917;SDS011;6019;51.768;5.870;2023-03-08T06:51:24;614.3333333333334;;;48.2;;
11917;SDS011;6019;51.768;5.870;2023-03-08T06:53:54;614.5333333333333;;;48.0;;
11917;SDS011;6019;51.768;5.870;2023-03-08T06:56:24;619.8;;;49.0;;
11917;SDS011;6019;51.768;5.870;2023-03-08T06:58:54;618.6;;;48.0;;
11917;SDS011;6019;51.768;5.870;2023-03-08T07:01:24;616.1333333333333;;;48.4;;
11917;SDS011;6019;51.768;5.870;2023-03-08T07:03:54;614.6666666666666;;;48.4;;
11917;SDS011;6019;51.768;5.870;2023-03-08T07:06:24;619.8666666666667;;;49.0;;
11917;SDS011;6019;51.768;5.870;2023-03-08T07:08:53;623.0;;;49.4;;
11917;SDS011;6019;51.768;5.870;2023-03-08T07:11:24;619.8;;;49.2;;
11917;SDS011;6019;51.768;5.870;2023-03-08T07:13:54;623.0;;;49.0;;
11917;SDS011;6019;51.768;5.870;2023-03-08T07:16:24;621.8;;;46.2;;
11917;SDS011;6019;51.768;5.870;2023-03-08T07:18:53;623.7333333333333;;;45.8;;
11917;SDS011;6019;51.768;5.870;2023-03-08T07:21:24;616.3333333333334;;;41.4;;
11917;SDS011;6019;51.768;5.870;2023-03-08T07:23:54;615.4;;;39.2;;
11917;SDS011;6019;51.768;5.870;2023-03-08T07:26:24;612.1333333333333;;;37.6;;
11917;SDS011;6019;51.768;5.870;2023-03-08T07:28:53;608.7333333333333;;;36.4;;
11917;SDS011;6019;51.768;5.870;2023-03-08T07:31:24;608.0666666666667;;;36.2;;
11917;SDS011;6019;51.768;5.870;2023-03-08T07:33:54;610.1333333333333;;;35.2;;
11917;SDS011;6019;51.768;5.870;2023-03-08T07:36:24;613.9333333333333;;;35.2;;
11917;SDS011;6019;51.768;5.870;2023-03-08T07:38:54;613.2666666666667;;;35.2;;
11917;SDS011;6019;51.768;5.870;2023-03-08T07:41:24;613.6;;;35.0;;
11917;SDS011;6019;51.768;5.870;2023-03-08T07:43:54;620.2666666666667;;;35.0;;
11917;SDS011;6019;51.768;5.870;2023-03-08T07:46:24;610.4666666666667;;;34.6;;
11917;SDS011;6019;51.768;5.870;2023-03-08T07:48:54;613.6;;;33.0;;
11917;SDS011;6019;51.768;5.870;2023-03-08T07:51:24;609.7333333333333;;;31.0;;
11917;SDS011;6019;51.768;5.870;2023-03-08T07:53:54;604.4;;;30.2;;
11917;SDS011;6019;51.768;5.870;2023-03-08T07:56:24;602.8666666666667;;;29.4;;
11917;SDS011;6019;51.768;5.870;2023-03-08T07:58:54;595.8;;;28.2;;
11917;SDS011;6019;51.768;5.870;2023-03-08T08:01:24;594.8;;;28.4;;
11917;SDS011;6019;51.768;5.870;2023-03-08T08:03:54;609.1333333333333;;;29.0;;
11917;SDS011;6019;51.768;5.870;2023-03-08T08:06:24;610.4;;;28.4;;
11917;SDS011;6019;51.768;5.870;2023-03-08T08:08:54;616.6;;;28.2;;
11917;SDS011;6019;51.768;5.870;2023-03-08T08:11:23;612.9333333333333;;;27.2;;
11917;SDS011;6019;51.768;5.870;2023-03-08T08:13:54;612.7333333333333;;;25.6;;
11917;SDS011;6019;51.768;5.870;2023-03-08T08:16:24;608.3333333333334;;;25.8;;
11917;SDS011;6019;51.768;5.870;2023-03-08T08:18:53;605.0666666666667;;;26.4;;
11917;SDS011;6019;51.768;5.870;2023-03-08T08:21:24;608.0666666666667;;;27.4;;
11917;SDS011;6019;51.768;5.870;2023-03-08T08:23:54;602.4666666666667;;;26.4;;
11917;SDS011;6019;51.768;5.870;2023-03-08T08:26:24;608.0;;;26.0;;
11917;SDS011;6019;51.768;5.870;2023-03-08T08:28:54;605.8666666666667;;;24.6;;
11917;SDS011;6019;51.768;5.870;2023-03-08T08:31:26;609.5333333333333;;;25.4;;
11917;SDS011;6019;51.768;5.870;2023-03-08T08:33:54;605.7333333333333;;;25.6;;
11917;SDS011;6019;51.768;5.870;2023-03-08T08:36:24;607.5333333333333;;;26.0;;
11917;SDS011;6019;51.768;5.870;2023-03-08T08:38:53;595.8;;;26.2;;
11917;SDS011;6019;51.768;5.870;2023-03-08T08:41:24;597.3333333333334;;;26.4;;
11917;SDS011;6019;51.768;5.870;2023-03-08T08:43:54;604.4666666666667;;;27.8;;
11917;SDS011;6019;51.768;5.870;2023-03-08T08:46:24;598.9333333333333;;;27.2;;
11917;SDS011;6019;51.768;5.870;2023-03-08T08:48:54;594.8666666666667;;;26.4;;
11917;SDS011;6019;51.768;5.870;2023-03-08T08:51:23;591.6;;;25.0;;
11917;SDS011;6019;51.768;5.870;2023-03-08T08:53:53;586.6;;;24.0;;
11917;SDS011;6019;51.768;5.870;2023-03-08T08:56:23;585.0666666666667;;;24.6;;
11917;SDS011;6019;51.768;5.870;2023-03-08T08:58:54;587.5333333333333;;;25.0;;
11917;SDS011;6019;51.768;5.870;2023-03-08T09:01:25;588.2;;;26.0;;
11917;SDS011;6019;51.768;5.870;2023-03-08T09:03:54;580.7333333333333;;;27.0;;
11917;SDS011;6019;51.768;5.870;2023-03-08T09:06:23;588.0666666666667;;;27.0;;
11917;SDS011;6019;51.768;5.870;2023-03-08T09:08:53;596.6666666666666;;;27.8;;
11917;SDS011;6019;51.768;5.870;2023-03-08T09:11:23;592.7333333333333;;;28.0;;
11917;SDS011;6019;51.768;5.870;2023-03-08T09:13:54;594.2666666666667;;;28.6;;
11917;SDS011;6019;51.768;5.870;2023-03-08T09:16:24;603.2666666666667;;;29.2;;
11917;SDS011;6019;51.768;5.870;2023-03-08T09:18:54;610.8;;;29.2;;
11917;SDS011;6019;51.768;5.870;2023-03-08T09:21:23;606.5333333333333;;;29.8;;
11917;SDS011;6019;51.768;5.870;2023-03-08T09:23:53;609.8;;;30.0;;
11917;SDS011;6019;51.768;5.870;2023-03-08T09:26:23;607.8666666666667;;;29.4;;
11917;SDS011;6019;51.768;5.870;2023-03-08T09:28:54;600.9333333333333;;;28.4;;
11917;SDS011;6019;51.768;5.870;2023-03-08T09:31:23;596.6666666666666;;;26.4;;
11917;SDS011;6019;51.768;5.870;2023-03-08T09:33:54;593.6;;;25.0;;
11917;SDS011;6019;51.768;5.870;2023-03-08T09:36:23;603.8;;;25.2;;
11917;SDS011;6019;51.768;5.870;2023-03-08T09:38:53;603.0;;;25.0;;
11917;SDS011;6019;51.768;5.870;2023-03-08T09:41:27;597.9333333333333;;;24.2;;
11917;SDS011;6019;51.768;5.870;2023-03-08T09:43:57;605.2666666666667;;;25.0;;
11917;SDS011;6019;51.768;5.870;2023-03-08T09:46:23;608.6666666666666;;;24.8;;
11917;SDS011;6019;51.768;5.870;2023-03-08T09:48:53;602.0666666666667;;;24.0;;
11917;SDS011;6019;51.768;5.870;2023-03-08T09:51:23;608.1333333333333;;;24.0;;
11917;SDS011;6019;51.768;5.870;2023-03-08T09:53:54;605.4666666666667;;;24.8;;
11917;SDS011;6019;51.768;5.870;2023-03-08T09:56:24;590.9333333333333;;;25.0;;
11917;SDS011;6019;51.768;5.870;2023-03-08T09:58:53;678.6;;;25.4;;
11917;SDS011;6019;51.768;5.870;2023-03-08T10:01:26;674.2;;;25.0;;
11917;SDS011;6019;51.768;5.870;2023-03-08T10:03:57;672.2666666666667;;;24.4;;
11917;SDS011;6019;51.768;5.870;2023-03-08T10:06:25;667.4666666666667;;;24.0;;
11917;SDS011;6019;51.768;5.870;2023-03-08T10:08:54;665.2;;;24.0;;
11917;SDS011;6019;51.768;5.870;2023-03-08T10:11:24;656.2666666666667;;;23.2;;
11917;SDS011;6019;51.768;5.870;2023-03-08T10:13:53;658.7333333333333;;;23.2;;
11917;SDS011;6019;51.768;5.870;2023-03-08T10:16:24;639.0;;;23.2;;
11917;SDS011;6019;51.768;5.870;2023-03-08T10:18:54;622.6;;;23.0;;
11917;SDS011;6019;51.768;5.870;2023-03-08T10:21:23;619.8666666666667;;;22.2;;
11917;SDS011;6019;51.768;5.870;2023-03-08T10:23:55;617.4;;;22.4;;
11917;SDS011;6019;51.768;5.870;2023-03-08T10:26:23;600.7333333333333;;;21.6;;
11917;SDS011;6019;51.768;5.870;2023-03-08T10:28:53;596.8666666666667;;;20.0;;
11917;SDS011;6019;51.768;5.870;2023-03-08T10:31:24;592.1333333333333;;;21.6;;
11917;SDS011;6019;51.768;5.870;2023-03-08T10:33:55;594.0;;;19.2;;
11917;SDS011;6019;51.768;5.870;2023-03-08T10:36:24;572.4666666666667;;;20.0;;
11917;SDS011;6019;51.768;5.870;2023-03-08T10:38:58;492.26666666666665;;;22.2;;
11917;SDS011;6019;51.768;5.870;2023-03-08T10:41:23;473.6;;;23.6;;
11917;SDS011;6019;51.768;5.870;2023-03-08T10:43:53;468.53333333333336;;;22.2;;
11917;SDS011;6019;51.768;5.870;2023-03-08T10:46:24;473.8666666666667;;;20.0;;
11917;SDS011;6019;51.768;5.870;2023-03-08T10:48:53;539.5333333333333;;;19.0;;
11917;SDS011;6019;51.768;5.870;2023-03-08T10:51:24;579.0666666666667;;;19.0;;
11917;SDS011;6019;51.768;5.870;2023-03-08T10:53:53;585.7333333333333;;;19.0;;
11917;SDS011;6019;51.768;5.870;2023-03-08T10:56:24;585.2666666666667;;;19.0;;
11917;SDS011;6019;51.768;5.870;2023-03-08T10:58:53;557.1333333333333;;;18.8;;
11917;SDS011;6019;51.768;5.870;2023-03-08T11:01:24;545.8666666666667;;;18.6;;
11917;SDS011;6019;51.768;5.870;2023-03-08T11:04:00;586.1333333333333;;;18.6;;
11917;SDS011;6019;51.768;5.870;2023-03-08T11:06:23;600.6;;;17.8;;
11917;SDS011;6019;51.768;5.870;2023-03-08T11:08:53;604.7333333333333;;;17.8;;
11917;SDS011;6019;51.768;5.870;2023-03-08T11:11:23;595.6666666666666;;;18.8;;
11917;SDS011;6019;51.768;5.870;2023-03-08T11:13:53;589.2666666666667;;;19.0;;
11917;SDS011;6019;51.768;5.870;2023-03-08T11:16:29;598.2666666666667;;;19.0;;
11917;SDS011;6019;51.768;5.870;2023-03-08T11:18:57;599.8;;;19.0;;
11917;SDS011;6019;51.768;5.870;2023-03-08T11:21:25;600.4666666666667;;;18.6;;
11917;SDS011;6019;51.768;5.870;2023-03-08T11:23:54;609.3333333333334;;;18.2;;
11917;SDS011;6019;51.768;5.870;2023-03-08T11:26:25;605.0;;;18.2;;
11917;SDS011;6019;51.768;5.870;2023-03-08T11:28:57;609.8666666666667;;;18.0;;
11917;SDS011;6019;51.768;5.870;2023-03-08T11:31:25;613.4666666666667;;;17.2;;
11917;SDS011;6019;51.768;5.870;2023-03-08T11:33:56;619.1333333333333;;;17.4;;
11917;SDS011;6019;51.768;5.870;2023-03-08T11:36:23;616.4666666666667;;;18.0;;
11917;SDS011;6019;51.768;5.870;2023-03-08T11:38:54;613.2666666666667;;;18.0;;
11917;SDS011;6019;51.768;5.870;2023-03-08T11:41:24;613.0666666666667;;;17.6;;
11917;SDS011;6019;51.768;5.870;2023-03-08T11:44:02;605.8666666666667;;;17.2;;
11917;SDS011;6019;51.768;5.870;2023-03-08T11:46:24;618.4;;;16.0;;
11917;SDS011;6019;51.768;5.870;2023-03-08T11:48:57;627.0;;;16.0;;
11917;SDS011;6019;51.768;5.870;2023-03-08T11:51:25;624.2666666666667;;;16.4;;
11917;SDS011;6019;51.768;5.870;2023-03-08T11:53:55;626.2666666666667;;;15.8;;
11917;SDS011;6019;51.768;5.870;2023-03-08T11:56:27;622.9333333333333;;;14.6;;
11917;SDS011;6019;51.768;5.870;2023-03-08T11:58:54;627.0666666666667;;;14.6;;
11917;SDS011;6019;51.768;5.870;2023-03-08T12:01:24;621.6;;;15.0;;
11917;SDS011;6019;51.768;5.870;2023-03-08T12:03:54;620.8;;;15.2;;
11917;SDS011;6019;51.768;5.870;2023-03-08T12:06:24;625.7333333333333;;;14.2;;
11917;SDS011;6019;51.768;5.870;2023-03-08T12:08:54;619.1333333333333;;;13.6;;
11917;SDS011;6019;51.768;5.870;2023-03-08T12:11:25;615.8666666666667;;;13.0;;
11917;SDS011;6019;51.768;5.870;2023-03-08T12:13:55;620.9333333333333;;;12.6;;
11917;SDS011;6019;51.768;5.870;2023-03-08T12:16:24;622.8;;;11.6;;
11917;SDS011;6019;51.768;5.870;2023-03-08T12:18:53;628.8;;;11.8;;
11917;SDS011;6019;51.768;5.870;2023-03-08T12:21:26;621.6;;;11.4;;
11917;SDS011;6019;51.768;5.870;2023-03-08T12:23:56;620.0666666666667;;;12.0;;
11917;SDS011;6019;51.768;5.870;2023-03-08T12:26:24;612.4666666666667;;;12.0;;
11917;SDS011;6019;51.768;5.870;2023-03-08T12:28:54;619.0666666666667;;;12.0;;
11917;SDS011;6019;51.768;5.870;2023-03-08T12:31:24;613.6;;;12.4;;
11917;SDS011;6019;51.768;5.870;2023-03-08T12:33:53;611.6666666666666;;;13.0;;
11917;SDS011;6019;51.768;5.870;2023-03-08T12:36:34;604.2;;;13.8;;
11917;SDS011;6019;51.768;5.870;2023-03-08T12:38:53;590.4666666666667;;;14.0;;
11917;SDS011;6019;51.768;5.870;2023-03-08T12:41:24;591.0666666666667;;;14.2;;
11917;SDS011;6019;51.768;5.870;2023-03-08T12:44:01;588.0666666666667;;;14.2;;
11917;SDS011;6019;51.768;5.870;2023-03-08T12:46:23;592.6666666666666;;;13.4;;
11917;SDS011;6019;51.768;5.870;2023-03-08T12:48:53;594.4;;;13.0;;
11917;SDS011;6019;51.768;5.870;2023-03-08T12:51:24;575.9333333333333;;;13.2;;
11917;SDS011;6019;51.768;5.870;2023-03-08T12:53:55;547.4666666666667;;;13.6;;
11917;SDS011;6019;51.768;5.870;2023-03-08T12:56:24;557.6;;;12.6;;
11917;SDS011;6019;51.768;5.870;2023-03-08T12:58:54;535.6666666666666;;;12.6;;
11917;SDS011;6019;51.768;5.870;2023-03-08T13:01:26;584.2;;;12.0;;
11917;SDS011;6019;51.768;5.870;2023-03-08T13:03:53;590.2666666666667;;;12.0;;
11917;SDS011;6019;51.768;5.870;2023-03-08T13:06:35;592.3333333333334;;;12.0;;
11917;SDS011;6019;51.768;5.870;2023-03-08T13:08:54;593.8666666666667;;;12.0;;
11917;SDS011;6019;51.768;5.870;2023-03-08T13:11:23;603.9333333333333;;;12.0;;
11917;SDS011;6019;51.768;5.870;2023-03-08T13:13:54;598.8;;;12.8;;
11917;SDS011;6019;51.768;5.870;2023-03-08T13:16:29;575.2;;;13.0;;
11917;SDS011;6019;51.768;5.870;2023-03-08T13:18:59;531.3333333333334;;;13.2;;
11917;SDS011;6019;51.768;5.870;2023-03-08T13:21:25;549.0;;;13.0;;